SCO17FG EGGD-EGPH
Flight info
| Callsign | SCO17FG |
|---|---|
| Flight time | 1h 4m |
| Altitude | 26000 |
| Route | BCN P69 DIZIM DCT KISWO/N0372F270 DCT AVTIC DCT ANJAK/N0376F280 N38 NOKIN UP16 RIBEL DCT INPIP |
| Aircraft | A320/M-SDE3FGHIRWY/LB1 |
Departure
| Time | 2026-05-06 06:52 |
|---|---|
| Airport | Bristol Airport (EGGD) |
Arrival
| Time | 2026-05-06 07:57 |
|---|---|
| Airport | Edinburgh Airport (EGPH) |
| Time | Latitude | Longitude | Altitude | Speed | Heading |
|---|---|---|---|---|---|
| 2026-05-06 06:27 | 51.38527 | -2.70903 | 622 ft | 0 kts | 266° |
| 2026-05-06 06:45 | 51.38528 | -2.70896 | 622 ft | 3 kts | 265° |
| 2026-05-06 06:45 | 51.38534 | -2.70857 | 617 ft | 4 kts | 230° |
| 2026-05-06 06:46 | 51.38554 | -2.70838 | 623 ft | 4 kts | 183° |
| 2026-05-06 06:46 | 51.38566 | -2.70837 | 616 ft | 0 kts | 177° |
| 2026-05-06 06:48 | 51.38564 | -2.70837 | 616 ft | 3 kts | 177° |
| 2026-05-06 06:48 | 51.38516 | -2.70833 | 618 ft | 8 kts | 177° |
| 2026-05-06 06:48 | 51.38473 | -2.70852 | 624 ft | 7 kts | 230° |
| 2026-05-06 06:49 | 51.38465 | -2.70961 | 614 ft | 14 kts | 266° |
| 2026-05-06 06:49 | 51.38457 | -2.71157 | 615 ft | 19 kts | 268° |
| 2026-05-06 06:49 | 51.38449 | -2.71378 | 614 ft | 21 kts | 266° |
| 2026-05-06 06:49 | 51.38439 | -2.71617 | 621 ft | 23 kts | 266° |
| 2026-05-06 06:50 | 51.38430 | -2.71879 | 606 ft | 23 kts | 270° |
| 2026-05-06 06:50 | 51.38428 | -2.72146 | 606 ft | 25 kts | 266° |
| 2026-05-06 06:50 | 51.38417 | -2.72419 | 612 ft | 25 kts | 266° |
| 2026-05-06 06:50 | 51.38406 | -2.72709 | 618 ft | 28 kts | 266° |
| 2026-05-06 06:51 | 51.38395 | -2.72985 | 616 ft | 23 kts | 266° |
| 2026-05-06 06:51 | 51.38385 | -2.73230 | 610 ft | 19 kts | 259° |
| 2026-05-06 06:51 | 51.38309 | -2.73342 | 617 ft | 13 kts | 185° |
| 2026-05-06 06:51 | 51.38243 | -2.73326 | 621 ft | 7 kts | 156° |
| 2026-05-06 06:52 | 51.38215 | -2.73219 | 627 ft | 20 kts | 88° |
| 2026-05-06 06:52 | 51.38240 | -2.72632 | 631 ft | 90 kts | 86° |
| 2026-05-06 06:52 | 51.38297 | -2.71257 | 630 ft | 152 kts | 85° |
| 2026-05-06 06:52 | 51.38399 | -2.69519 | 1239 ft | 159 kts | 82° |
| 2026-05-06 06:53 | 51.38462 | -2.67699 | 1992 ft | 171 kts | 88° |
| 2026-05-06 06:53 | 51.38416 | -2.65681 | 2512 ft | 194 kts | 91° |
| 2026-05-06 06:53 | 51.38351 | -2.63395 | 2930 ft | 222 kts | 89° |
| 2026-05-06 06:53 | 51.38400 | -2.60766 | 3445 ft | 251 kts | 83° |
| 2026-05-06 06:54 | 51.38677 | -2.57865 | 4054 ft | 272 kts | 73° |
| 2026-05-06 06:54 | 51.39577 | -2.55223 | 5091 ft | 274 kts | 43° |
| 2026-05-06 06:54 | 51.41247 | -2.53955 | 6001 ft | 270 kts | 4° |
| 2026-05-06 06:54 | 51.43032 | -2.54683 | 6163 ft | 270 kts | 321° |
| 2026-05-06 06:55 | 51.44045 | -2.57105 | 5984 ft | 262 kts | 293° |
| 2026-05-06 06:55 | 51.44892 | -2.59740 | 6449 ft | 268 kts | 303° |
| 2026-05-06 06:55 | 51.45970 | -2.62192 | 7527 ft | 270 kts | 307° |
| 2026-05-06 06:55 | 51.47094 | -2.64595 | 8580 ft | 272 kts | 307° |
| 2026-05-06 06:56 | 51.48230 | -2.67052 | 9601 ft | 276 kts | 307° |
| 2026-05-06 06:56 | 51.49367 | -2.69597 | 10324 ft | 290 kts | 306° |
| 2026-05-06 06:56 | 51.50563 | -2.72363 | 10764 ft | 311 kts | 305° |
| 2026-05-06 06:56 | 51.51788 | -2.75270 | 11548 ft | 317 kts | 305° |
| 2026-05-06 06:57 | 51.53019 | -2.78245 | 12458 ft | 321 kts | 305° |
| 2026-05-06 06:57 | 51.54235 | -2.81211 | 13330 ft | 325 kts | 304° |
| 2026-05-06 06:57 | 51.55478 | -2.84265 | 14172 ft | 328 kts | 304° |
| 2026-05-06 06:57 | 51.56733 | -2.87351 | 14949 ft | 332 kts | 304° |
| 2026-05-06 06:58 | 51.58019 | -2.90502 | 15743 ft | 335 kts | 303° |
| 2026-05-06 06:58 | 51.59287 | -2.93608 | 16478 ft | 338 kts | 303° |
| 2026-05-06 06:58 | 51.60584 | -2.96789 | 17232 ft | 342 kts | 303° |
| 2026-05-06 06:58 | 51.61897 | -3.00011 | 17962 ft | 346 kts | 303° |
| 2026-05-06 06:59 | 51.63227 | -3.03278 | 18613 ft | 351 kts | 303° |
| 2026-05-06 06:59 | 51.64573 | -3.06581 | 19257 ft | 354 kts | 302° |
| 2026-05-06 06:59 | 51.65931 | -3.09924 | 19885 ft | 358 kts | 302° |
| 2026-05-06 06:59 | 51.67416 | -3.13155 | 20522 ft | 363 kts | 313° |
| 2026-05-06 07:00 | 51.68733 | -3.14921 | 20940 ft | 367 kts | 326° |
| 2026-05-06 07:00 | 51.71017 | -3.16843 | 21568 ft | 372 kts | 333° |
| 2026-05-06 07:00 | 51.73366 | -3.18649 | 22186 ft | 376 kts | 333° |
| 2026-05-06 07:00 | 51.75743 | -3.20450 | 22794 ft | 380 kts | 333° |
| 2026-05-06 07:01 | 51.78181 | -3.22166 | 23399 ft | 385 kts | 339° |
| 2026-05-06 07:01 | 51.80798 | -3.23219 | 23924 ft | 392 kts | 350° |
| 2026-05-06 07:01 | 51.83501 | -3.23458 | 24438 ft | 397 kts | 0° |
| 2026-05-06 07:01 | 51.86262 | -3.22925 | 24962 ft | 401 kts | 7° |
| 2026-05-06 07:02 | 51.89028 | -3.22231 | 25485 ft | 404 kts | 7° |
| 2026-05-06 07:02 | 51.91812 | -3.21540 | 25896 ft | 406 kts | 7° |
| 2026-05-06 07:02 | 51.94604 | -3.20850 | 26000 ft | 402 kts | 6° |
| 2026-05-06 07:02 | 51.97309 | -3.20183 | 26014 ft | 385 kts | 6° |
| 2026-05-06 07:03 | 51.99924 | -3.19539 | 26019 ft | 377 kts | 6° |
| 2026-05-06 07:03 | 52.02508 | -3.18902 | 26014 ft | 375 kts | 6° |
| 2026-05-06 07:03 | 52.05090 | -3.18441 | 26026 ft | 373 kts | 0° |
| 2026-05-06 07:03 | 52.07678 | -3.18249 | 26014 ft | 372 kts | 0° |
| 2026-05-06 07:04 | 52.10271 | -3.18056 | 26011 ft | 372 kts | 0° |
| 2026-05-06 07:04 | 52.12857 | -3.17863 | 26021 ft | 372 kts | 0° |
| 2026-05-06 07:04 | 52.15445 | -3.17666 | 26027 ft | 372 kts | 0° |
| 2026-05-06 07:04 | 52.18033 | -3.17467 | 26028 ft | 372 kts | 0° |
| 2026-05-06 07:05 | 52.20620 | -3.17266 | 26028 ft | 372 kts | 0° |
| 2026-05-06 07:05 | 52.23209 | -3.17064 | 26029 ft | 372 kts | 0° |
| 2026-05-06 07:05 | 52.25798 | -3.16863 | 26038 ft | 372 kts | 0° |
| 2026-05-06 07:05 | 52.28384 | -3.16667 | 26034 ft | 372 kts | 360° |
| 2026-05-06 07:06 | 52.30971 | -3.16474 | 26043 ft | 372 kts | 360° |
| 2026-05-06 07:06 | 52.33559 | -3.16276 | 26041 ft | 372 kts | 0° |
| 2026-05-06 07:06 | 52.36150 | -3.16073 | 26037 ft | 372 kts | 0° |
| 2026-05-06 07:06 | 52.38735 | -3.15871 | 26039 ft | 372 kts | 0° |
| 2026-05-06 07:07 | 52.41320 | -3.15671 | 26034 ft | 372 kts | 0° |
| 2026-05-06 07:07 | 52.43886 | -3.15472 | 26034 ft | 372 kts | 360° |
| 2026-05-06 07:07 | 52.46473 | -3.15275 | 26034 ft | 372 kts | 360° |
| 2026-05-06 07:07 | 52.49064 | -3.15075 | 26053 ft | 372 kts | 360° |
| 2026-05-06 07:08 | 52.51650 | -3.14870 | 26053 ft | 372 kts | 360° |
| 2026-05-06 07:08 | 52.54238 | -3.14665 | 26057 ft | 372 kts | 360° |
| 2026-05-06 07:08 | 52.56820 | -3.14462 | 26055 ft | 372 kts | 360° |
| 2026-05-06 07:08 | 52.59406 | -3.14259 | 26053 ft | 372 kts | 360° |
| 2026-05-06 07:09 | 52.61998 | -3.14057 | 26051 ft | 373 kts | 360° |
| 2026-05-06 07:09 | 52.64620 | -3.13853 | 26416 ft | 379 kts | 360° |
| 2026-05-06 07:09 | 52.67253 | -3.13645 | 26911 ft | 380 kts | 360° |
| 2026-05-06 07:09 | 52.69889 | -3.13378 | 27026 ft | 380 kts | 4° |
| 2026-05-06 07:10 | 52.72483 | -3.12480 | 27056 ft | 383 kts | 15° |
| 2026-05-06 07:10 | 52.74957 | -3.10830 | 27046 ft | 385 kts | 22° |
| 2026-05-06 07:10 | 52.77379 | -3.08935 | 27042 ft | 386 kts | 22° |
| 2026-05-06 07:10 | 52.79807 | -3.07038 | 27043 ft | 386 kts | 22° |
| 2026-05-06 07:11 | 52.82233 | -3.05139 | 27044 ft | 386 kts | 22° |
| 2026-05-06 07:11 | 52.84654 | -3.03238 | 27050 ft | 386 kts | 22° |
| 2026-05-06 07:11 | 52.87082 | -3.01331 | 27052 ft | 386 kts | 22° |
| 2026-05-06 07:11 | 52.89507 | -2.99438 | 27055 ft | 385 kts | 20° |
| 2026-05-06 07:12 | 52.92016 | -2.97853 | 27222 ft | 389 kts | 17° |
| 2026-05-06 07:12 | 52.94564 | -2.96309 | 27847 ft | 390 kts | 17° |
| 2026-05-06 07:12 | 52.97116 | -2.94758 | 28040 ft | 390 kts | 17° |
| 2026-05-06 07:13 | 53.02204 | -2.91648 | 28075 ft | 389 kts | 17° |
| 2026-05-06 07:13 | 53.07289 | -2.88524 | 28079 ft | 389 kts | 17° |
| 2026-05-06 07:14 | 53.12369 | -2.85391 | 28082 ft | 389 kts | 17° |
| 2026-05-06 07:14 | 53.17447 | -2.82242 | 28083 ft | 389 kts | 17° |
| 2026-05-06 07:15 | 53.22530 | -2.79091 | 28069 ft | 390 kts | 17° |
| 2026-05-06 07:15 | 53.27596 | -2.75940 | 28066 ft | 390 kts | 17° |
| 2026-05-06 07:16 | 53.32680 | -2.72778 | 28069 ft | 390 kts | 17° |
| 2026-05-06 07:16 | 53.37767 | -2.69604 | 28070 ft | 390 kts | 17° |
| 2026-05-06 07:17 | 53.42830 | -2.66419 | 28072 ft | 390 kts | 17° |
| 2026-05-06 07:17 | 53.47907 | -2.63221 | 28063 ft | 390 kts | 17° |
| 2026-05-06 07:18 | 53.52954 | -2.60042 | 28062 ft | 390 kts | 17° |
| 2026-05-06 07:18 | 53.58036 | -2.56836 | 28062 ft | 390 kts | 17° |
| 2026-05-06 07:19 | 53.63114 | -2.53624 | 28061 ft | 390 kts | 17° |
| 2026-05-06 07:19 | 53.68111 | -2.50463 | 28060 ft | 390 kts | 17° |
| 2026-05-06 07:20 | 53.73143 | -2.47261 | 28083 ft | 390 kts | 17° |
| 2026-05-06 07:20 | 53.78217 | -2.44019 | 28070 ft | 390 kts | 17° |
| 2026-05-06 07:21 | 53.83294 | -2.40773 | 28062 ft | 390 kts | 17° |
| 2026-05-06 07:21 | 53.88373 | -2.37510 | 28061 ft | 390 kts | 17° |
| 2026-05-06 07:22 | 53.93445 | -2.34238 | 28064 ft | 390 kts | 17° |
| 2026-05-06 07:22 | 53.98565 | -2.31246 | 28080 ft | 386 kts | 7° |
| 2026-05-06 07:22 | 54.01219 | -2.30750 | 28073 ft | 381 kts | 356° |
| 2026-05-06 07:23 | 54.03838 | -2.31105 | 28073 ft | 377 kts | 346° |
| 2026-05-06 07:23 | 54.06353 | -2.32251 | 28068 ft | 372 kts | 335° |
| 2026-05-06 07:23 | 54.08748 | -2.33897 | 28064 ft | 371 kts | 334° |
| 2026-05-06 07:24 | 54.13542 | -2.37220 | 28068 ft | 372 kts | 334° |
| 2026-05-06 07:24 | 54.18337 | -2.40551 | 28063 ft | 372 kts | 334° |
| 2026-05-06 07:25 | 54.23133 | -2.43881 | 28082 ft | 372 kts | 334° |
| 2026-05-06 07:25 | 54.27935 | -2.47222 | 28076 ft | 372 kts | 334° |
| 2026-05-06 07:26 | 54.32730 | -2.50579 | 28077 ft | 372 kts | 334° |
| 2026-05-06 07:26 | 54.37524 | -2.53938 | 28076 ft | 372 kts | 334° |
| 2026-05-06 07:27 | 54.42317 | -2.57311 | 28075 ft | 372 kts | 334° |
| 2026-05-06 07:27 | 54.47110 | -2.60695 | 28094 ft | 372 kts | 334° |
| 2026-05-06 07:28 | 54.51900 | -2.64072 | 28089 ft | 372 kts | 334° |
| 2026-05-06 07:28 | 54.59079 | -2.69161 | 28090 ft | 372 kts | 334° |
| 2026-05-06 07:29 | 54.63869 | -2.72565 | 28090 ft | 372 kts | 334° |
| 2026-05-06 07:29 | 54.68646 | -2.75966 | 28088 ft | 371 kts | 334° |
| 2026-05-06 07:30 | 54.73422 | -2.79376 | 28107 ft | 371 kts | 333° |
| 2026-05-06 07:30 | 54.75813 | -2.81089 | 28000 ft | 372 kts | 333° |
| 2026-05-06 07:30 | 54.78157 | -2.82773 | 27731 ft | 369 kts | 333° |
| 2026-05-06 07:31 | 54.80506 | -2.84467 | 27407 ft | 363 kts | 333° |
| 2026-05-06 07:31 | 54.82819 | -2.86133 | 26988 ft | 359 kts | 334° |
| 2026-05-06 07:31 | 54.85147 | -2.87804 | 26548 ft | 355 kts | 334° |
| 2026-05-06 07:31 | 54.87389 | -2.89412 | 26143 ft | 353 kts | 334° |
| 2026-05-06 07:32 | 54.89672 | -2.91054 | 25666 ft | 358 kts | 334° |
| 2026-05-06 07:32 | 54.91974 | -2.92719 | 25138 ft | 358 kts | 334° |
| 2026-05-06 07:32 | 54.94277 | -2.94386 | 24644 ft | 357 kts | 334° |
| 2026-05-06 07:32 | 54.96561 | -2.96038 | 24145 ft | 355 kts | 334° |
| 2026-05-06 07:33 | 54.98837 | -2.97690 | 23651 ft | 354 kts | 334° |
| 2026-05-06 07:33 | 55.01111 | -2.99342 | 23093 ft | 352 kts | 334° |
| 2026-05-06 07:33 | 55.03362 | -3.00979 | 22605 ft | 349 kts | 334° |
| 2026-05-06 07:33 | 55.05596 | -3.02603 | 22122 ft | 346 kts | 334° |
| 2026-05-06 07:34 | 55.07812 | -3.04213 | 21638 ft | 344 kts | 334° |
| 2026-05-06 07:34 | 55.10013 | -3.05819 | 21159 ft | 342 kts | 334° |
| 2026-05-06 07:34 | 55.12197 | -3.07420 | 20684 ft | 340 kts | 334° |
| 2026-05-06 07:34 | 55.14370 | -3.09015 | 20213 ft | 338 kts | 334° |
| 2026-05-06 07:35 | 55.16538 | -3.10600 | 19706 ft | 337 kts | 334° |
| 2026-05-06 07:35 | 55.18707 | -3.12186 | 19185 ft | 338 kts | 334° |
| 2026-05-06 07:35 | 55.20878 | -3.13776 | 18663 ft | 339 kts | 334° |
| 2026-05-06 07:35 | 55.23052 | -3.15373 | 18123 ft | 339 kts | 334° |
| 2026-05-06 07:36 | 55.25218 | -3.16967 | 17678 ft | 335 kts | 334° |
| 2026-05-06 07:36 | 55.27370 | -3.18554 | 17174 ft | 334 kts | 334° |
| 2026-05-06 07:36 | 55.29562 | -3.19828 | 16787 ft | 332 kts | 346° |
| 2026-05-06 07:36 | 55.31857 | -3.20115 | 16506 ft | 329 kts | 1° |
| 2026-05-06 07:37 | 55.34109 | -3.19751 | 16325 ft | 321 kts | 2° |
| 2026-05-06 07:37 | 55.36315 | -3.19397 | 15984 ft | 317 kts | 2° |
| 2026-05-06 07:37 | 55.38506 | -3.19057 | 15614 ft | 315 kts | 2° |
| 2026-05-06 07:37 | 55.40681 | -3.18723 | 15122 ft | 312 kts | 2° |
| 2026-05-06 07:38 | 55.42821 | -3.18394 | 14577 ft | 306 kts | 2° |
| 2026-05-06 07:38 | 55.44925 | -3.18073 | 14040 ft | 302 kts | 2° |
| 2026-05-06 07:38 | 55.47006 | -3.17753 | 13407 ft | 299 kts | 2° |
| 2026-05-06 07:38 | 55.49063 | -3.17435 | 12771 ft | 295 kts | 2° |
| 2026-05-06 07:39 | 55.51101 | -3.17114 | 12137 ft | 293 kts | 3° |
| 2026-05-06 07:39 | 55.53079 | -3.16802 | 11533 ft | 294 kts | 3° |
| 2026-05-06 07:39 | 55.55158 | -3.16473 | 10912 ft | 300 kts | 3° |
| 2026-05-06 07:39 | 55.57275 | -3.16248 | 10305 ft | 303 kts | 355° |
| 2026-05-06 07:40 | 55.59294 | -3.17104 | 9691 ft | 304 kts | 334° |
| 2026-05-06 07:40 | 55.61001 | -3.19280 | 9035 ft | 305 kts | 312° |
| 2026-05-06 07:40 | 55.62078 | -3.22383 | 8392 ft | 294 kts | 290° |
| 2026-05-06 07:40 | 55.62395 | -3.25836 | 8030 ft | 276 kts | 269° |
| 2026-05-06 07:41 | 55.62049 | -3.29038 | 7817 ft | 257 kts | 250° |
| 2026-05-06 07:41 | 55.61181 | -3.31730 | 7608 ft | 254 kts | 232° |
| 2026-05-06 07:41 | 55.59848 | -3.33815 | 7407 ft | 260 kts | 212° |
| 2026-05-06 07:41 | 55.58178 | -3.35004 | 7248 ft | 261 kts | 192° |
| 2026-05-06 07:42 | 55.56374 | -3.35208 | 7172 ft | 260 kts | 179° |
| 2026-05-06 07:42 | 55.54568 | -3.35124 | 7120 ft | 259 kts | 181° |
| 2026-05-06 07:42 | 55.52788 | -3.35330 | 7067 ft | 254 kts | 188° |
| 2026-05-06 07:42 | 55.51034 | -3.35626 | 7015 ft | 253 kts | 183° |
| 2026-05-06 07:43 | 55.49284 | -3.35890 | 6961 ft | 252 kts | 194° |
| 2026-05-06 07:43 | 55.47748 | -3.37239 | 6908 ft | 248 kts | 226° |
| 2026-05-06 07:43 | 55.46959 | -3.39853 | 6858 ft | 244 kts | 264° |
| 2026-05-06 07:43 | 55.47190 | -3.42816 | 6802 ft | 251 kts | 298° |
| 2026-05-06 07:44 | 55.48331 | -3.45084 | 6761 ft | 251 kts | 330° |
| 2026-05-06 07:44 | 55.49984 | -3.46025 | 6718 ft | 253 kts | 349° |
| 2026-05-06 07:44 | 55.51717 | -3.46580 | 6659 ft | 253 kts | 349° |
| 2026-05-06 07:44 | 55.53408 | -3.47262 | 6525 ft | 245 kts | 345° |
| 2026-05-06 07:45 | 55.55011 | -3.48119 | 6389 ft | 233 kts | 341° |
| 2026-05-06 07:45 | 55.56491 | -3.49090 | 6254 ft | 221 kts | 338° |
| 2026-05-06 07:45 | 55.57871 | -3.50148 | 6125 ft | 212 kts | 335° |
| 2026-05-06 07:45 | 55.58763 | -3.50896 | 6023 ft | 208 kts | 334° |
| 2026-05-06 07:46 | 55.60043 | -3.52062 | 5896 ft | 207 kts | 332° |
| 2026-05-06 07:46 | 55.61293 | -3.53322 | 5763 ft | 207 kts | 329° |
| 2026-05-06 07:46 | 55.62509 | -3.54681 | 5631 ft | 207 kts | 327° |
| 2026-05-06 07:46 | 55.63691 | -3.56135 | 5502 ft | 208 kts | 324° |
| 2026-05-06 07:47 | 55.64830 | -3.57663 | 5374 ft | 208 kts | 322° |
| 2026-05-06 07:47 | 55.65970 | -3.59306 | 5240 ft | 209 kts | 321° |
| 2026-05-06 07:47 | 55.67081 | -3.60914 | 5114 ft | 209 kts | 321° |
| 2026-05-06 07:47 | 55.68207 | -3.62540 | 4983 ft | 209 kts | 322° |
| 2026-05-06 07:48 | 55.69332 | -3.64168 | 4970 ft | 209 kts | 321° |
| 2026-05-06 07:48 | 55.70463 | -3.65810 | 4853 ft | 210 kts | 321° |
| 2026-05-06 07:48 | 55.71611 | -3.67478 | 4716 ft | 211 kts | 322° |
| 2026-05-06 07:48 | 55.72746 | -3.69128 | 4578 ft | 211 kts | 322° |
| 2026-05-06 07:49 | 55.73883 | -3.70774 | 4451 ft | 210 kts | 322° |
| 2026-05-06 07:49 | 55.75001 | -3.72394 | 4312 ft | 210 kts | 322° |
| 2026-05-06 07:49 | 55.76102 | -3.74101 | 4181 ft | 210 kts | 317° |
| 2026-05-06 07:49 | 55.77145 | -3.75925 | 4076 ft | 211 kts | 316° |
| 2026-05-06 07:50 | 55.78172 | -3.77778 | 4003 ft | 209 kts | 317° |
| 2026-05-06 07:50 | 55.79411 | -3.78990 | 4004 ft | 205 kts | 356° |
| 2026-05-06 07:50 | 55.80751 | -3.78422 | 4013 ft | 200 kts | 39° |
| 2026-05-06 07:50 | 55.81551 | -3.76476 | 4026 ft | 198 kts | 68° |
| 2026-05-06 07:51 | 55.82175 | -3.74314 | 4013 ft | 192 kts | 60° |
| 2026-05-06 07:51 | 55.82894 | -3.72366 | 4008 ft | 185 kts | 56° |
| 2026-05-06 07:51 | 55.83603 | -3.70504 | 4009 ft | 182 kts | 59° |
| 2026-05-06 07:51 | 55.84280 | -3.68603 | 3996 ft | 182 kts | 59° |
| 2026-05-06 07:52 | 55.84946 | -3.66686 | 3840 ft | 181 kts | 60° |
| 2026-05-06 07:52 | 55.85589 | -3.64820 | 3638 ft | 174 kts | 60° |
| 2026-05-06 07:52 | 55.86216 | -3.62994 | 3384 ft | 171 kts | 60° |
| 2026-05-06 07:52 | 55.86829 | -3.61207 | 3144 ft | 168 kts | 61° |
| 2026-05-06 07:53 | 55.87431 | -3.59452 | 2908 ft | 163 kts | 61° |
| 2026-05-06 07:53 | 55.88007 | -3.57770 | 2691 ft | 154 kts | 61° |
| 2026-05-06 07:53 | 55.88535 | -3.56230 | 2496 ft | 138 kts | 62° |
| 2026-05-06 07:53 | 55.89031 | -3.54776 | 2307 ft | 141 kts | 62° |
| 2026-05-06 07:54 | 55.89545 | -3.53269 | 2096 ft | 143 kts | 61° |
| 2026-05-06 07:54 | 55.90067 | -3.51741 | 1894 ft | 146 kts | 60° |
| 2026-05-06 07:54 | 55.90600 | -3.50178 | 1659 ft | 148 kts | 60° |
| 2026-05-06 07:54 | 55.91135 | -3.48609 | 1471 ft | 149 kts | 60° |
| 2026-05-06 07:55 | 55.91671 | -3.47036 | 1253 ft | 149 kts | 60° |
| 2026-05-06 07:55 | 55.92208 | -3.45456 | 1046 ft | 149 kts | 59° |
| 2026-05-06 07:55 | 55.92775 | -3.43912 | 827 ft | 149 kts | 59° |
| 2026-05-06 07:55 | 55.93297 | -3.42323 | 629 ft | 148 kts | 61° |
| 2026-05-06 07:56 | 55.93829 | -3.40736 | 406 ft | 149 kts | 57° |
| 2026-05-06 07:56 | 55.94365 | -3.39154 | 223 ft | 149 kts | 60° |
| 2026-05-06 07:56 | 55.94887 | -3.37580 | 113 ft | 138 kts | 59° |
| 2026-05-06 07:56 | 55.95291 | -3.36388 | 111 ft | 86 kts | 58° |
| 2026-05-06 07:57 | 55.95506 | -3.35766 | 113 ft | 34 kts | 60° |
| 2026-05-06 07:57 | 55.95563 | -3.35505 | 113 ft | 12 kts | 122° |
| 2026-05-06 07:57 | 55.95508 | -3.35449 | 114 ft | 7 kts | 150° |
| 2026-05-06 07:57 | 55.95444 | -3.35398 | 114 ft | 10 kts | 187° |
| 2026-05-06 07:58 | 55.95426 | -3.35424 | 114 ft | 0 kts | 235° |
| 2026-05-06 07:59 | 55.95414 | -3.35455 | 116 ft | 10 kts | 237° |
| 2026-05-06 07:59 | 55.95379 | -3.35557 | 113 ft | 9 kts | 238° |
| 2026-05-06 07:59 | 55.95339 | -3.35676 | 116 ft | 13 kts | 239° |
| 2026-05-06 07:59 | 55.95294 | -3.35811 | 115 ft | 9 kts | 238° |
| 2026-05-06 08:00 | 55.95248 | -3.35943 | 113 ft | 15 kts | 238° |
| 2026-05-06 08:00 | 55.95193 | -3.36106 | 115 ft | 15 kts | 239° |
| 2026-05-06 08:00 | 55.95136 | -3.36163 | 116 ft | 9 kts | 159° |
| 2026-05-06 08:00 | 55.95106 | -3.36068 | 115 ft | 10 kts | 108° |
| 2026-05-06 08:01 | 55.95082 | -3.35956 | 114 ft | 10 kts | 116° |
| 2026-05-06 08:01 | 55.95048 | -3.35851 | 114 ft | 10 kts | 130° |
| 2026-05-06 08:01 | 55.95002 | -3.35868 | 116 ft | 8 kts | 245° |
| 2026-05-06 08:01 | 55.94984 | -3.35954 | 116 ft | 7 kts | 250° |
| 2026-05-06 08:02 | 55.94970 | -3.36026 | 116 ft | 0 kts | 251° |
| 2026-05-06 08:05 | 55.94970 | -3.36024 | 116 ft | 0 kts | 251° |